createdAt,value
2019-05-20T00:00:19.231Z,15.90
2019-05-20T00:01:19.226Z,15.00
2019-05-20T00:02:24.661Z,14.80
2019-05-20T00:03:20.201Z,15.40
2019-05-20T00:04:19.209Z,16.50
2019-05-20T00:05:19.176Z,15.60
2019-05-20T00:06:19.156Z,17.30
2019-05-20T00:07:19.163Z,16.70
2019-05-20T00:08:19.140Z,16.30
2019-05-20T00:09:19.139Z,16.10
2019-05-20T00:10:19.136Z,15.80
2019-05-20T00:11:19.117Z,16.40
2019-05-20T00:12:19.117Z,16.20
2019-05-20T00:13:19.094Z,16.70
2019-05-20T00:14:19.087Z,16.50
2019-05-20T00:15:19.081Z,16.20
2019-05-20T00:16:19.059Z,17.00
2019-05-20T00:17:19.052Z,14.60
2019-05-20T00:18:19.026Z,16.60
2019-05-20T00:19:19.013Z,16.00
2019-05-20T00:20:19.004Z,19.50
2019-05-20T00:21:19.007Z,16.60
2019-05-20T00:22:18.997Z,16.60
2019-05-20T00:23:18.995Z,17.80
2019-05-20T00:24:18.981Z,19.10
2019-05-20T00:25:18.961Z,15.40
2019-05-20T00:26:18.945Z,15.80
2019-05-20T00:27:18.946Z,18.50
2019-05-20T00:28:18.933Z,16.00
2019-05-20T00:29:18.911Z,16.90
2019-05-20T00:30:18.906Z,20.30
2019-05-20T00:31:18.883Z,17.50
2019-05-20T00:32:18.891Z,16.90
2019-05-20T00:33:18.888Z,17.90
2019-05-20T00:34:32.676Z,15.60
2019-05-20T00:35:19.850Z,15.60
2019-05-20T00:36:18.842Z,18.10
2019-05-20T00:37:18.838Z,15.20
2019-05-20T00:38:18.821Z,16.20
2019-05-20T00:39:18.797Z,16.30
2019-05-20T00:40:18.789Z,20.20
2019-05-20T00:41:18.799Z,16.00
2019-05-20T00:42:18.809Z,14.70
2019-05-20T00:43:18.755Z,16.00
2019-05-20T00:44:18.750Z,15.30
2019-05-20T00:45:18.756Z,16.60
2019-05-20T00:46:18.739Z,16.00
2019-05-20T00:47:18.735Z,16.90
2019-05-20T00:48:18.729Z,16.70
2019-05-20T00:49:18.687Z,16.50
2019-05-20T00:50:18.681Z,15.70
2019-05-20T00:51:18.661Z,15.80
2019-05-20T00:52:18.674Z,16.70
2019-05-20T00:53:18.672Z,15.50
2019-05-20T00:54:18.653Z,14.90
2019-05-20T00:55:18.639Z,15.90
2019-05-20T00:56:18.633Z,16.60
2019-05-20T00:57:18.619Z,16.40
2019-05-20T00:58:18.619Z,19.10
2019-05-20T00:59:18.595Z,16.60
2019-05-20T01:00:18.583Z,18.50
2019-05-20T01:01:18.557Z,16.10
2019-05-20T01:02:18.536Z,19.70
2019-05-20T01:03:18.544Z,16.00
2019-05-20T01:04:18.529Z,17.50
2019-05-20T01:05:18.522Z,17.20
2019-05-20T01:06:18.505Z,16.20
2019-05-20T01:07:18.500Z,15.60
2019-05-20T01:08:18.508Z,18.90
2019-05-20T01:09:18.480Z,15.20
2019-05-20T01:10:18.462Z,16.30
2019-05-20T01:11:18.446Z,14.40
2019-05-20T01:12:18.467Z,20.30
2019-05-20T01:13:18.442Z,16.10
2019-05-20T01:14:18.459Z,15.50
2019-05-20T01:15:18.404Z,19.80
2019-05-20T01:16:18.401Z,14.40
2019-05-20T01:17:18.386Z,16.10
2019-05-20T01:18:18.401Z,16.30
2019-05-20T01:19:18.376Z,15.00
2019-05-20T01:20:18.357Z,15.20
2019-05-20T01:21:18.338Z,14.00
2019-05-20T01:22:18.322Z,14.80
2019-05-20T01:23:18.332Z,15.20
2019-05-20T01:24:18.308Z,16.10
2019-05-20T01:25:18.307Z,16.80
2019-05-20T01:26:18.295Z,15.30
2019-05-20T01:27:18.289Z,16.00
2019-05-20T01:28:18.283Z,14.40
2019-05-20T01:29:18.246Z,16.80
2019-05-20T01:30:18.244Z,15.70
2019-05-20T01:31:18.248Z,15.50
2019-05-20T01:32:18.229Z,16.20
2019-05-20T01:33:18.219Z,15.30
2019-05-20T01:34:18.189Z,15.80
2019-05-20T01:35:18.192Z,14.40
2019-05-20T01:36:18.191Z,15.70
2019-05-20T01:37:18.180Z,16.70
2019-05-20T01:38:18.178Z,14.90
2019-05-20T01:39:18.217Z,14.20
2019-05-20T01:40:18.141Z,17.50
2019-05-20T01:41:18.203Z,16.90
2019-05-20T01:42:18.111Z,15.80
2019-05-20T01:43:18.123Z,15.70
2019-05-20T01:44:18.098Z,16.70
2019-05-20T01:45:18.085Z,17.00
2019-05-20T01:46:18.070Z,17.00
2019-05-20T01:47:18.066Z,15.70
2019-05-20T01:48:18.070Z,15.10
2019-05-20T01:49:18.037Z,16.20
2019-05-20T01:50:18.044Z,14.00
2019-05-20T01:51:18.016Z,13.20
2019-05-20T01:52:18.034Z,17.50
2019-05-20T01:53:18.007Z,14.90
2019-05-20T01:54:17.970Z,17.70
2019-05-20T01:55:17.971Z,14.80
2019-05-20T01:56:17.951Z,15.10
2019-05-20T01:57:17.951Z,15.50
2019-05-20T01:58:17.978Z,15.60
2019-05-20T01:59:17.931Z,16.20
2019-05-20T02:00:17.919Z,17.60
2019-05-20T02:01:17.953Z,15.20
2019-05-20T02:02:17.949Z,15.70
2019-05-20T02:03:30.931Z,15.30
2019-05-20T02:04:18.884Z,15.80
2019-05-20T02:05:17.890Z,17.10
2019-05-20T02:06:17.840Z,17.70
2019-05-20T02:07:17.878Z,14.90
2019-05-20T02:08:17.822Z,18.20
2019-05-20T02:09:17.836Z,15.30
2019-05-20T02:10:17.810Z,15.70
2019-05-20T02:11:17.790Z,17.50
2019-05-20T02:12:17.791Z,15.80
2019-05-20T02:13:17.773Z,16.70
2019-05-20T02:14:17.827Z,17.80
2019-05-20T02:15:17.747Z,18.10
2019-05-20T02:16:17.733Z,14.20
2019-05-20T02:17:17.721Z,14.40
2019-05-20T02:18:17.720Z,16.80
2019-05-20T02:19:17.731Z,15.90
2019-05-20T02:20:17.689Z,16.00
2019-05-20T02:21:17.686Z,15.60
2019-05-20T02:22:17.674Z,16.00
2019-05-20T02:23:17.664Z,15.70
2019-05-20T02:24:17.669Z,15.40
2019-05-20T02:25:17.659Z,16.30
2019-05-20T02:26:17.620Z,17.60
2019-05-20T02:27:17.613Z,16.10
2019-05-20T02:28:17.611Z,16.40
2019-05-20T02:29:17.621Z,16.00
2019-05-20T02:30:17.579Z,15.60
2019-05-20T02:31:17.578Z,16.60
2019-05-20T02:32:17.570Z,14.30
2019-05-20T02:33:17.563Z,17.30
2019-05-20T02:34:17.549Z,16.90
2019-05-20T02:35:17.543Z,16.30
2019-05-20T02:36:17.518Z,15.90
2019-05-20T02:37:17.499Z,17.00
2019-05-20T02:38:17.501Z,16.50
2019-05-20T02:39:17.493Z,15.10
2019-05-20T02:40:17.480Z,15.10
2019-05-20T02:41:17.469Z,15.10
2019-05-20T02:42:17.458Z,15.00
2019-05-20T02:43:17.441Z,16.80
2019-05-20T02:44:17.457Z,16.30
2019-05-20T02:45:17.415Z,18.80
2019-05-20T02:46:17.402Z,16.50
2019-05-20T02:47:17.407Z,16.90
2019-05-20T02:48:17.380Z,15.30
2019-05-20T02:49:17.392Z,16.10
2019-05-20T02:50:17.377Z,17.90
2019-05-20T02:51:17.348Z,18.80
2019-05-20T02:52:17.334Z,18.00
2019-05-20T02:53:17.338Z,15.50
2019-05-20T02:54:17.338Z,14.70
2019-05-20T02:55:17.319Z,19.10
2019-05-20T02:56:17.310Z,15.80
2019-05-20T02:57:17.295Z,15.20
2019-05-20T02:58:17.272Z,16.90
2019-05-20T02:59:17.283Z,15.10
2019-05-20T03:00:17.250Z,18.10
2019-05-20T03:01:17.247Z,17.90
2019-05-20T03:02:17.231Z,17.60
2019-05-20T03:03:17.237Z,16.20
2019-05-20T03:04:17.231Z,15.10
2019-05-20T03:05:17.208Z,14.90
2019-05-20T03:06:17.174Z,16.30
2019-05-20T03:07:17.173Z,17.50
2019-05-20T03:08:17.173Z,19.10
2019-05-20T03:09:17.163Z,16.90
2019-05-20T03:10:17.137Z,17.00
2019-05-20T03:11:17.122Z,15.50
2019-05-20T03:12:17.123Z,16.90
2019-05-20T03:13:17.120Z,14.50
2019-05-20T03:14:17.117Z,18.10
2019-05-20T03:15:17.086Z,17.80
2019-05-20T03:16:17.087Z,17.00
2019-05-20T03:17:17.067Z,16.20
2019-05-20T03:18:17.058Z,16.90
2019-05-20T03:19:17.051Z,16.80
2019-05-20T03:20:17.040Z,18.90
2019-05-20T03:21:17.025Z,19.70
2019-05-20T03:22:17.019Z,17.50
2019-05-20T03:23:17.014Z,16.90
2019-05-20T03:24:16.999Z,17.80
2019-05-20T03:25:16.983Z,17.80
2019-05-20T03:26:16.980Z,17.50
2019-05-20T03:27:16.966Z,15.80
2019-05-20T03:28:16.942Z,17.90
2019-05-20T03:29:16.941Z,19.70
2019-05-20T03:30:16.919Z,16.20
2019-05-20T03:31:16.918Z,15.80
2019-05-20T03:32:16.895Z,16.60
2019-05-20T03:33:16.888Z,17.80
2019-05-20T03:34:41.690Z,17.60
2019-05-20T03:35:17.916Z,17.50
2019-05-20T03:36:16.857Z,16.70
2019-05-20T03:37:16.846Z,17.60
2019-05-20T03:38:16.856Z,17.20
2019-05-20T03:39:16.837Z,20.70
2019-05-20T03:40:16.857Z,17.40
2019-05-20T03:41:16.806Z,18.30
2019-05-20T03:42:16.790Z,16.60
2019-05-20T03:43:16.780Z,15.80
2019-05-20T03:44:16.777Z,15.50
2019-05-20T03:45:16.784Z,16.70
2019-05-20T03:46:16.755Z,18.10
2019-05-20T03:47:16.754Z,18.10
2019-05-20T03:48:16.734Z,17.00
2019-05-20T03:49:16.734Z,16.70
2019-05-20T03:50:16.708Z,15.60
2019-05-20T03:51:16.685Z,18.20
2019-05-20T03:52:16.683Z,16.40
2019-05-20T03:53:16.674Z,16.40
2019-05-20T03:54:16.655Z,16.20
2019-05-20T03:55:16.668Z,16.30
2019-05-20T03:56:16.628Z,17.70
2019-05-20T03:57:16.626Z,15.50
2019-05-20T03:58:16.618Z,18.10
2019-05-20T03:59:16.610Z,17.10
2019-05-20T04:00:16.601Z,17.40
2019-05-20T04:01:16.577Z,17.90
2019-05-20T04:02:16.581Z,18.40
2019-05-20T04:03:16.556Z,17.30
2019-05-20T04:04:16.548Z,16.30
2019-05-20T04:05:16.563Z,17.00
2019-05-20T04:06:16.544Z,15.30
2019-05-20T04:07:16.514Z,18.50
2019-05-20T04:08:16.520Z,17.80
2019-05-20T04:09:16.486Z,25.70
2019-05-20T04:10:16.480Z,18.90
2019-05-20T04:11:16.475Z,17.60
2019-05-20T04:12:16.472Z,17.10
2019-05-20T04:13:16.445Z,17.50
2019-05-20T04:14:16.455Z,16.90
2019-05-20T04:15:16.431Z,17.20
2019-05-20T04:16:16.423Z,18.20
2019-05-20T04:17:16.413Z,18.20
2019-05-20T04:18:16.419Z,15.70
2019-05-20T04:19:16.396Z,19.30
2019-05-20T04:20:16.407Z,16.70
2019-05-20T04:21:16.357Z,17.00
2019-05-20T04:22:16.348Z,16.90
2019-05-20T04:23:16.342Z,16.10
2019-05-20T04:24:16.325Z,18.00
2019-05-20T04:25:16.333Z,17.30
2019-05-20T04:26:16.321Z,15.90
2019-05-20T04:27:16.287Z,17.10
2019-05-20T04:28:16.274Z,18.50
2019-05-20T04:29:16.284Z,17.50
2019-05-20T04:30:18.828Z,16.10
2019-05-20T04:31:16.256Z,22.80
2019-05-20T04:32:16.243Z,18.60
2019-05-20T04:33:16.226Z,16.50
2019-05-20T04:34:16.211Z,17.20
2019-05-20T04:35:22.281Z,14.80
2019-05-20T04:36:17.193Z,15.00
2019-05-20T04:37:16.202Z,17.80
2019-05-20T04:38:16.181Z,14.60
2019-05-20T04:39:16.167Z,15.80
2019-05-20T04:40:16.154Z,16.90
2019-05-20T04:41:16.131Z,16.10
2019-05-20T04:42:16.133Z,15.80
2019-05-20T04:43:16.136Z,15.30
2019-05-20T04:44:16.112Z,17.80
2019-05-20T04:45:16.105Z,15.50
2019-05-20T04:46:16.101Z,16.10
2019-05-20T04:47:16.080Z,16.20
2019-05-20T04:48:16.061Z,15.70
2019-05-20T04:49:16.050Z,16.40
2019-05-20T04:50:16.062Z,17.50
2019-05-20T04:51:16.034Z,16.30
2019-05-20T04:52:16.025Z,16.80
2019-05-20T04:53:15.998Z,16.40
2019-05-20T04:54:15.987Z,15.10
2019-05-20T04:55:15.996Z,15.90
2019-05-20T04:56:15.990Z,13.80
2019-05-20T04:57:15.963Z,19.00
2019-05-20T04:58:15.954Z,16.10
2019-05-20T04:59:15.938Z,16.30
2019-05-20T05:00:15.947Z,14.70
2019-05-20T05:01:15.915Z,16.50
2019-05-20T05:02:15.913Z,17.10
2019-05-20T05:03:15.897Z,13.60
2019-05-20T05:04:15.896Z,18.20
2019-05-20T05:05:15.883Z,16.50
2019-05-20T05:06:15.867Z,17.00
2019-05-20T05:07:15.852Z,15.90
2019-05-20T05:08:15.836Z,15.40
2019-05-20T05:09:15.875Z,15.30
2019-05-20T05:10:15.833Z,21.10
2019-05-20T05:11:15.819Z,21.20
2019-05-20T05:12:15.800Z,16.60
2019-05-20T05:13:15.780Z,15.40
2019-05-20T05:14:15.771Z,18.10
2019-05-20T05:15:15.773Z,17.30
2019-05-20T05:16:15.756Z,19.40
2019-05-20T05:17:15.750Z,16.00
2019-05-20T05:18:15.727Z,17.00
2019-05-20T05:19:15.724Z,16.40
2019-05-20T05:20:18.500Z,14.20
2019-05-20T05:21:15.704Z,16.00
2019-05-20T05:22:15.687Z,15.50
2019-05-20T05:23:15.677Z,17.20
2019-05-20T05:24:15.665Z,12.90
2019-05-20T05:25:15.644Z,15.90
2019-05-20T05:26:15.642Z,13.60
2019-05-20T05:27:15.645Z,12.90
2019-05-20T05:28:15.629Z,15.50
2019-05-20T05:29:15.610Z,13.30
2019-05-20T05:30:15.589Z,13.00
2019-05-20T05:31:15.583Z,14.90
2019-05-20T05:32:15.597Z,12.60
2019-05-20T05:33:15.577Z,12.50
2019-05-20T05:34:15.556Z,13.10
2019-05-20T05:35:15.547Z,13.70
2019-05-20T05:36:15.545Z,13.80
2019-05-20T05:37:15.511Z,13.90
2019-05-20T05:38:15.572Z,11.50
2019-05-20T05:39:15.492Z,12.20
2019-05-20T05:40:15.491Z,13.70
2019-05-20T05:41:15.494Z,12.60
2019-05-20T05:42:15.515Z,11.50
2019-05-20T05:43:15.453Z,12.40
2019-05-20T05:44:15.462Z,13.50
2019-05-20T05:45:15.431Z,12.40
2019-05-20T05:46:15.439Z,13.10
2019-05-20T05:47:15.401Z,12.70
2019-05-20T05:48:15.412Z,13.10
2019-05-20T05:49:15.395Z,15.00
2019-05-20T05:50:15.366Z,13.20
2019-05-20T05:51:15.370Z,13.30
2019-05-20T05:52:15.354Z,13.00
2019-05-20T05:53:15.354Z,12.60
2019-05-20T05:54:15.340Z,12.30
2019-05-20T05:55:15.322Z,14.10
2019-05-20T05:56:15.410Z,12.70
2019-05-20T05:57:15.311Z,12.90
2019-05-20T05:58:15.296Z,10.70
2019-05-20T05:59:15.271Z,13.20
2019-05-20T06:00:15.302Z,12.80
2019-05-20T06:01:15.277Z,14.40
2019-05-20T06:02:15.276Z,10.90
2019-05-20T06:03:15.242Z,13.50
2019-05-20T06:04:15.217Z,14.40
2019-05-20T06:05:15.215Z,12.30
2019-05-20T06:06:15.226Z,12.00
2019-05-20T06:07:15.203Z,15.20
2019-05-20T06:08:15.186Z,11.20
2019-05-20T06:09:15.177Z,13.40
2019-05-20T06:10:15.149Z,12.80
2019-05-20T06:11:15.155Z,12.20
2019-05-20T06:12:15.129Z,12.70
2019-05-20T06:13:15.120Z,12.90
2019-05-20T06:14:15.116Z,14.20
2019-05-20T06:15:15.118Z,14.30
2019-05-20T06:16:15.118Z,14.10
2019-05-20T06:17:15.079Z,11.30
2019-05-20T06:18:15.070Z,11.90
2019-05-20T06:19:15.068Z,10.50
2019-05-20T06:20:15.056Z,12.20
2019-05-20T06:21:15.188Z,12.60
2019-05-20T06:22:15.020Z,10.50
2019-05-20T06:23:15.001Z,12.40
2019-05-20T06:24:15.000Z,13.30
2019-05-20T06:25:15.032Z,10.40
2019-05-20T06:26:15.042Z,9.50
2019-05-20T06:27:14.972Z,17.60
2019-05-20T06:28:14.969Z,10.40
2019-05-20T06:29:14.942Z,14.80
2019-05-20T06:30:14.971Z,9.80
2019-05-20T06:31:14.962Z,13.90
2019-05-20T06:32:15.207Z,11.90
2019-05-20T06:33:14.908Z,10.90
2019-05-20T06:34:15.029Z,11.50
2019-05-20T06:35:15.052Z,12.50
2019-05-20T06:36:26.384Z,9.60
2019-05-20T06:37:15.863Z,9.60
2019-05-20T06:38:14.864Z,12.10
2019-05-20T06:39:14.843Z,10.40
2019-05-20T06:40:14.839Z,9.80
2019-05-20T06:41:14.823Z,10.00
2019-05-20T06:42:14.816Z,12.90
2019-05-20T06:43:14.806Z,11.50
2019-05-20T06:44:14.786Z,13.40
2019-05-20T06:45:14.782Z,10.10
2019-05-20T06:46:14.786Z,12.30
2019-05-20T06:47:14.756Z,11.30
2019-05-20T06:48:14.749Z,9.50
2019-05-20T06:49:14.736Z,10.90
2019-05-20T06:50:14.723Z,13.00
2019-05-20T06:51:14.729Z,11.90
2019-05-20T06:52:14.723Z,14.40
2019-05-20T06:53:14.691Z,10.10
2019-05-20T06:54:14.691Z,10.50
2019-05-20T06:55:14.674Z,13.20
2019-05-20T06:56:14.694Z,10.60
2019-05-20T06:57:14.747Z,14.00
2019-05-20T06:58:14.659Z,9.30
2019-05-20T06:59:14.640Z,8.10
2019-05-20T07:00:14.632Z,12.60
2019-05-20T07:01:14.611Z,11.00
2019-05-20T07:02:14.608Z,10.10
2019-05-20T07:03:14.586Z,9.10
2019-05-20T07:04:14.577Z,11.00
2019-05-20T07:05:14.569Z,8.40
2019-05-20T07:06:14.566Z,11.40
2019-05-20T07:07:20.811Z,8.70
2019-05-20T07:08:15.529Z,10.90
2019-05-20T07:09:14.527Z,11.00
2019-05-20T07:10:14.518Z,7.80
2019-05-20T07:11:14.513Z,8.20
2019-05-20T07:12:14.522Z,9.40
2019-05-20T07:13:16.351Z,8.00
2019-05-20T07:14:14.494Z,7.70
2019-05-20T07:15:14.455Z,8.50
2019-05-20T07:16:14.475Z,8.80
2019-05-20T07:17:14.446Z,6.70
2019-05-20T07:18:14.519Z,7.00
2019-05-20T07:19:14.425Z,7.10
2019-05-20T07:20:14.416Z,8.60
2019-05-20T07:21:14.394Z,7.40
2019-05-20T07:22:14.397Z,7.30
2019-05-20T07:23:14.386Z,10.00
2019-05-20T07:24:14.393Z,7.60
2019-05-20T07:25:14.357Z,6.20
2019-05-20T07:26:14.339Z,7.30
2019-05-20T07:27:14.349Z,6.70
2019-05-20T07:28:14.331Z,6.30
2019-05-20T07:29:14.331Z,7.60
2019-05-20T07:30:15.404Z,6.50
2019-05-20T07:31:14.315Z,7.20
2019-05-20T07:32:14.314Z,9.20
2019-05-20T07:33:14.284Z,7.20
2019-05-20T07:34:14.271Z,8.00
2019-05-20T07:35:28.748Z,8.60
2019-05-20T07:36:15.249Z,8.50
2019-05-20T07:37:14.253Z,7.70
2019-05-20T07:38:14.245Z,7.10
2019-05-20T07:39:14.219Z,8.00
2019-05-20T07:40:14.216Z,7.20
2019-05-20T07:41:14.217Z,8.90
2019-05-20T07:42:14.215Z,8.20
2019-05-20T07:43:14.191Z,7.10
2019-05-20T07:44:14.202Z,9.40
2019-05-20T07:45:14.160Z,8.20
2019-05-20T07:46:14.149Z,7.10
2019-05-20T07:47:14.157Z,7.50
2019-05-20T07:48:14.134Z,8.70
2019-05-20T07:49:14.134Z,7.30
2019-05-20T07:50:14.135Z,9.20
2019-05-20T07:51:14.130Z,7.50
2019-05-20T07:52:14.164Z,7.10
2019-05-20T07:53:14.088Z,7.80
2019-05-20T07:54:14.076Z,8.00
2019-05-20T07:55:14.077Z,7.20
2019-05-20T07:56:14.069Z,7.70
2019-05-20T07:57:14.097Z,8.70
2019-05-20T07:58:14.041Z,8.10
2019-05-20T07:59:14.030Z,7.20
2019-05-20T08:00:14.038Z,10.10
2019-05-20T08:01:14.022Z,9.20
2019-05-20T08:02:14.060Z,8.80
2019-05-20T08:03:14.005Z,8.90
2019-05-20T08:04:14.028Z,9.50
2019-05-20T08:05:13.990Z,8.70
2019-05-20T08:06:13.965Z,7.60
2019-05-20T08:07:27.460Z,6.40
2019-05-20T08:08:14.953Z,6.10
2019-05-20T08:09:13.932Z,6.10
2019-05-20T08:10:13.921Z,7.40
2019-05-20T08:11:13.918Z,6.90
2019-05-20T08:12:13.954Z,8.90
2019-05-20T08:13:13.895Z,7.80
2019-05-20T08:14:13.881Z,7.60
2019-05-20T08:15:13.877Z,6.20
2019-05-20T08:16:13.866Z,5.50
2019-05-20T08:17:13.904Z,5.30
2019-05-20T08:18:13.857Z,7.80
2019-05-20T08:19:13.847Z,5.80
2019-05-20T08:20:13.829Z,6.40
2019-05-20T08:21:13.859Z,6.60
2019-05-20T08:22:13.841Z,5.70
2019-05-20T08:23:13.798Z,8.70
2019-05-20T08:24:13.817Z,7.00
2019-05-20T08:25:13.788Z,7.60
2019-05-20T08:26:13.783Z,5.00
2019-05-20T08:27:13.783Z,5.20
2019-05-20T08:28:13.744Z,5.40
2019-05-20T08:29:13.741Z,5.40
2019-05-20T08:30:14.268Z,5.60
2019-05-20T08:31:13.729Z,6.80
2019-05-20T08:32:13.721Z,5.30
2019-05-20T08:33:13.728Z,5.20
2019-05-20T08:34:13.700Z,5.70
2019-05-20T08:35:13.679Z,5.70
2019-05-20T08:36:13.670Z,5.50
2019-05-20T08:37:13.762Z,5.00
2019-05-20T08:38:13.673Z,5.60
2019-05-20T08:39:13.661Z,7.90
2019-05-20T08:40:13.654Z,4.80
2019-05-20T08:41:13.629Z,4.70
2019-05-20T08:42:13.618Z,5.50
2019-05-20T08:43:13.640Z,5.70
2019-05-20T08:44:13.618Z,5.40
2019-05-20T08:45:13.588Z,4.70
2019-05-20T08:46:13.589Z,5.60
2019-05-20T08:47:13.571Z,5.10
2019-05-20T08:48:13.569Z,8.30
2019-05-20T08:49:13.566Z,4.60
2019-05-20T08:50:16.214Z,8.70
2019-05-20T08:51:13.534Z,4.90
2019-05-20T08:52:13.530Z,5.10
2019-05-20T08:53:13.536Z,6.00
2019-05-20T08:54:13.507Z,5.60
2019-05-20T08:55:13.497Z,5.30
2019-05-20T08:56:13.511Z,5.40
2019-05-20T08:57:13.488Z,5.60
2019-05-20T08:58:13.493Z,5.20
2019-05-20T08:59:13.456Z,4.70
2019-05-20T09:00:13.452Z,4.50
2019-05-20T09:01:13.445Z,6.50
2019-05-20T09:02:13.449Z,4.20
2019-05-20T09:03:13.449Z,4.30
2019-05-20T09:04:13.461Z,4.20
2019-05-20T09:05:13.397Z,4.80
2019-05-20T09:06:13.411Z,5.50
2019-05-20T09:07:13.380Z,4.00
2019-05-20T09:08:13.389Z,4.80
2019-05-20T09:09:13.384Z,4.10
2019-05-20T09:10:13.365Z,4.00
2019-05-20T09:11:13.386Z,3.50
2019-05-20T09:12:13.362Z,4.00
2019-05-20T09:13:13.354Z,4.40
2019-05-20T09:14:13.329Z,3.90
2019-05-20T09:15:13.330Z,3.50
2019-05-20T09:16:13.314Z,3.90
2019-05-20T09:17:13.306Z,3.90
2019-05-20T09:18:13.299Z,5.10
2019-05-20T09:19:13.301Z,5.20
2019-05-20T09:20:13.285Z,4.40
2019-05-20T09:21:13.486Z,4.60
2019-05-20T09:22:13.266Z,6.00
2019-05-20T09:23:13.283Z,4.60
2019-05-20T09:24:13.239Z,4.50
2019-05-20T09:25:13.306Z,3.80
2019-05-20T09:26:13.224Z,5.50
2019-05-20T09:27:13.212Z,3.70
2019-05-20T09:28:13.226Z,5.70
2019-05-20T09:29:13.196Z,4.40
2019-05-20T09:30:13.211Z,4.00
2019-05-20T09:31:13.375Z,4.30
2019-05-20T09:32:13.171Z,4.00
2019-05-20T09:33:13.204Z,6.00
2019-05-20T09:34:13.170Z,4.00
2019-05-20T09:35:13.146Z,3.90
2019-05-20T09:36:13.134Z,3.50
2019-05-20T09:37:13.124Z,5.10
2019-05-20T09:38:20.007Z,3.70
2019-05-20T09:39:14.139Z,6.60
2019-05-20T09:40:13.088Z,3.50
2019-05-20T09:41:13.116Z,4.10
2019-05-20T09:42:13.072Z,3.70
2019-05-20T09:43:13.088Z,3.20
2019-05-20T09:44:13.059Z,3.30
2019-05-20T09:45:13.042Z,3.50
2019-05-20T09:46:13.038Z,4.00
2019-05-20T09:47:13.030Z,5.30
2019-05-20T09:48:13.037Z,5.30
2019-05-20T09:49:13.013Z,3.70
2019-05-20T09:50:12.989Z,4.90
2019-05-20T09:51:12.996Z,5.00
2019-05-20T09:52:12.983Z,4.00
2019-05-20T09:53:13.006Z,6.10
2019-05-20T09:54:12.966Z,3.50
2019-05-20T09:55:12.963Z,3.80
2019-05-20T09:56:12.958Z,4.60
2019-05-20T09:57:12.934Z,5.30
2019-05-20T09:58:12.937Z,4.40
2019-05-20T09:59:16.218Z,3.90
2019-05-20T10:00:12.900Z,4.70
2019-05-20T10:01:12.907Z,4.70
2019-05-20T10:02:12.896Z,6.00
2019-05-20T10:03:12.902Z,4.20
2019-05-20T10:04:12.876Z,6.30
2019-05-20T10:05:12.866Z,4.30
2019-05-20T10:06:12.864Z,5.80
2019-05-20T10:07:12.851Z,5.20
2019-05-20T10:08:12.846Z,4.90
2019-05-20T10:09:12.845Z,3.70
2019-05-20T10:10:12.818Z,3.70
2019-05-20T10:11:12.814Z,4.80
2019-05-20T10:12:12.791Z,3.70
2019-05-20T10:13:12.815Z,4.90
2019-05-20T10:14:12.803Z,5.10
2019-05-20T10:15:12.779Z,5.40
2019-05-20T10:16:12.764Z,3.70
2019-05-20T10:17:12.755Z,7.20
2019-05-20T10:18:12.743Z,3.60
2019-05-20T10:19:12.756Z,3.70
2019-05-20T10:20:12.742Z,6.20
2019-05-20T10:21:12.713Z,3.60
2019-05-20T10:22:12.711Z,4.30
2019-05-20T10:23:15.743Z,6.60
2019-05-20T10:24:12.686Z,4.60
2019-05-20T10:25:12.737Z,8.40
2019-05-20T10:26:12.672Z,3.90
2019-05-20T10:27:12.674Z,4.90
2019-05-20T10:28:12.671Z,4.20
2019-05-20T10:29:12.651Z,5.20
2019-05-20T10:30:12.684Z,6.60
2019-05-20T10:31:12.633Z,4.80
2019-05-20T10:32:12.620Z,4.80
2019-05-20T10:33:12.621Z,4.70
2019-05-20T10:34:12.619Z,4.10
2019-05-20T10:35:12.607Z,3.90
2019-05-20T10:36:12.585Z,4.80
2019-05-20T10:37:12.596Z,3.50
2019-05-20T10:38:12.597Z,3.90
2019-05-20T10:39:12.596Z,5.60
2019-05-20T10:40:12.552Z,4.30
2019-05-20T10:41:12.552Z,5.00
2019-05-20T10:42:12.529Z,5.00
2019-05-20T10:43:12.532Z,4.30
2019-05-20T10:44:12.537Z,4.80
2019-05-20T10:45:12.535Z,3.90
2019-05-20T10:46:12.505Z,5.30
2019-05-20T10:47:12.492Z,4.30
2019-05-20T10:48:12.485Z,6.70
2019-05-20T10:49:12.488Z,6.60
2019-05-20T10:50:12.468Z,5.40
2019-05-20T10:51:12.472Z,6.20
2019-05-20T10:52:12.452Z,5.80
2019-05-20T10:53:12.453Z,4.60
2019-05-20T10:54:12.442Z,6.00
2019-05-20T10:55:12.407Z,5.50
2019-05-20T10:56:12.798Z,4.90
2019-05-20T10:57:12.401Z,4.20
2019-05-20T10:58:12.396Z,6.70
2019-05-20T10:59:12.669Z,5.20
2019-05-20T11:00:12.384Z,4.70
2019-05-20T11:01:12.382Z,5.40
2019-05-20T11:02:12.361Z,7.60
2019-05-20T11:03:12.338Z,4.40
2019-05-20T11:04:12.336Z,5.80
2019-05-20T11:05:12.335Z,4.50
2019-05-20T11:06:12.566Z,6.50
2019-05-20T11:07:12.313Z,5.30
2019-05-20T11:08:12.294Z,6.00
2019-05-20T11:09:14.441Z,4.60
2019-05-20T11:10:12.278Z,7.60
2019-05-20T11:11:14.452Z,4.40
2019-05-20T11:12:12.262Z,5.70
2019-05-20T11:13:12.243Z,5.10
2019-05-20T11:14:12.245Z,5.50
2019-05-20T11:15:12.230Z,5.80
2019-05-20T11:16:12.231Z,6.60
2019-05-20T11:17:14.982Z,7.60
2019-05-20T11:18:12.197Z,6.10
2019-05-20T11:19:12.197Z,5.20
2019-05-20T11:20:12.178Z,5.30
2019-05-20T11:21:12.173Z,6.20
2019-05-20T11:22:12.145Z,5.50
2019-05-20T11:23:12.147Z,5.80
2019-05-20T11:24:12.146Z,6.20
2019-05-20T11:25:12.114Z,7.30
2019-05-20T11:26:12.104Z,8.00
2019-05-20T11:27:12.098Z,6.20
2019-05-20T11:28:12.332Z,5.50
2019-05-20T11:29:12.130Z,7.20
2019-05-20T11:30:12.072Z,5.50
2019-05-20T11:31:12.065Z,4.60
2019-05-20T11:32:12.051Z,4.70
2019-05-20T11:33:12.056Z,5.30
2019-05-20T11:34:12.043Z,7.70
2019-05-20T11:35:12.016Z,6.40
2019-05-20T11:36:12.006Z,4.90
2019-05-20T11:37:12.001Z,5.60
2019-05-20T11:38:12.008Z,5.30
2019-05-20T11:39:11.985Z,7.20
2019-05-20T11:40:12.674Z,4.80
2019-05-20T11:41:11.972Z,5.50
2019-05-20T11:42:11.947Z,5.80
2019-05-20T11:43:11.946Z,6.30
2019-05-20T11:44:12.169Z,6.20
2019-05-20T11:45:11.914Z,5.70
2019-05-20T11:46:11.892Z,6.30
2019-05-20T11:47:11.894Z,5.00
2019-05-20T11:48:11.904Z,5.50
2019-05-20T11:49:11.878Z,6.40
2019-05-20T11:50:11.863Z,5.40
2019-05-20T11:51:11.844Z,5.60
2019-05-20T11:52:11.844Z,5.20
2019-05-20T11:53:11.813Z,6.20
2019-05-20T11:54:11.806Z,7.70
2019-05-20T11:55:11.814Z,8.70
2019-05-20T11:56:12.190Z,6.90
2019-05-20T11:57:11.775Z,6.40
2019-05-20T11:58:16.426Z,5.40
2019-05-20T11:59:11.748Z,5.80
2019-05-20T12:00:11.756Z,6.90
2019-05-20T12:01:11.742Z,5.10
2019-05-20T12:02:11.730Z,7.20
2019-05-20T12:03:11.713Z,5.50
2019-05-20T12:04:11.717Z,5.10
2019-05-20T12:05:11.703Z,4.70
2019-05-20T12:06:11.708Z,5.40
2019-05-20T12:07:11.666Z,6.00
2019-05-20T12:08:11.677Z,5.20
2019-05-20T12:09:11.656Z,7.10
2019-05-20T12:10:11.660Z,6.40
2019-05-20T12:11:11.630Z,7.40
2019-05-20T12:12:11.619Z,5.70
2019-05-20T12:13:11.624Z,6.10
2019-05-20T12:14:11.609Z,6.60
2019-05-20T12:15:11.600Z,6.60
2019-05-20T12:16:11.584Z,7.50
2019-05-20T12:17:11.569Z,6.60
2019-05-20T12:18:11.551Z,5.90
2019-05-20T12:19:11.547Z,7.50
2019-05-20T12:20:12.752Z,6.00
2019-05-20T12:21:11.528Z,5.10
2019-05-20T12:22:11.515Z,5.50
2019-05-20T12:23:11.506Z,7.70
2019-05-20T12:24:11.495Z,5.30
2019-05-20T12:25:11.490Z,8.40
2019-05-20T12:26:11.472Z,6.00
2019-05-20T12:27:11.459Z,6.30
2019-05-20T12:28:11.465Z,6.60
2019-05-20T12:29:11.432Z,7.50
2019-05-20T12:30:11.504Z,9.40
2019-05-20T12:31:11.425Z,7.80
2019-05-20T12:32:11.392Z,5.00
2019-05-20T12:33:19.674Z,7.70
2019-05-20T12:34:12.378Z,9.50
2019-05-20T12:35:11.403Z,5.60
2019-05-20T12:36:11.443Z,7.60
2019-05-20T12:37:11.355Z,7.50
2019-05-20T12:38:11.332Z,7.10
2019-05-20T12:39:11.331Z,8.50
2019-05-20T12:40:11.329Z,8.20
2019-05-20T12:41:11.316Z,7.40
2019-05-20T12:42:11.838Z,6.40
2019-05-20T12:43:11.276Z,7.90
2019-05-20T12:44:13.106Z,16.70
2019-05-20T12:45:11.297Z,6.20
2019-05-20T12:46:11.258Z,7.40
2019-05-20T12:47:11.251Z,6.70
2019-05-20T12:48:11.246Z,10.20
2019-05-20T12:49:11.397Z,5.90
2019-05-20T12:50:11.221Z,5.40
2019-05-20T12:51:14.377Z,7.30
2019-05-20T12:52:11.205Z,7.00
2019-05-20T12:53:11.206Z,8.20
2019-05-20T12:54:11.169Z,7.10
2019-05-20T12:55:11.182Z,10.10
2019-05-20T12:56:11.138Z,7.10
2019-05-20T12:57:11.126Z,9.50
2019-05-20T12:58:11.119Z,6.20
2019-05-20T12:59:11.117Z,7.40
2019-05-20T13:00:11.111Z,6.10
2019-05-20T13:01:11.105Z,5.90
2019-05-20T13:02:11.079Z,5.90
2019-05-20T13:03:11.075Z,7.30
2019-05-20T13:04:11.268Z,6.10